Terminal Aerodrome Forecast
Issued by NWS

Home | Current Version | Previous Version | Text Only | Print | Product List | Glossary On
Versions: 1 2 3 4 5 6 7 8 9 10 11 12 13 14 15 16 17 18 19 20 21 22 23 24 25 26 27
599
FTUS44 KLZK 020733 AAA
TAFLLQ
TAF AMD
KLLQ 020733Z 0208/0306 02004KT P6SM BKN028 BKN045
     FM020900 36006KT P6SM VCSH SCT015 OVC035
     FM021200 35010KT 5SM TSRA BR OVC015CB
     FM021800 01008KT P6SM VCTS SCT025 BKN050CB=

USA.gov is the U.S. government's official web portal to all federal, state and local government web resources and services.